Time;durP1;ratioP1;P1;durP2;ratioP2;P2;SDS_P1;SDS_P2;PMS_P1;PMS_P2;Temp;Humidity;BMP_temperature;BMP_pressure;BME280_temperature;BME280_humidity;BME280_pressure;Samples;Min_cycle;Max_cycle;Signal;HPM_P1;HPM_P2
2023/06/06 00:00:28;;;;;;;6.37;3.70;;;;;;;25.76;42.56;99691.72;4469324;32;33444;-63
2023/06/06 00:02:56;;;;;;;6.72;3.53;;;;;;;25.76;42.51;99693.63;4469638;32;34696;-63
2023/06/06 00:05:27;;;;;;;8.55;4.00;;;;;;;25.75;42.66;99687.28;4476437;31;34135;-64
2023/06/06 00:07:54;;;;;;;6.35;2.83;;;;;;;25.76;42.50;99694.44;4500867;31;33773;-63
2023/06/06 00:10:22;;;;;;;6.28;3.42;;;;;;;25.76;42.41;99699.91;4500923;31;33845;-64
2023/06/06 00:12:52;;;;;;;6.20;3.75;;;;;;;25.75;42.44;99703.69;4500815;31;34333;-63
2023/06/06 00:15:19;;;;;;;7.47;3.72;;;;;;;25.75;42.44;99698.22;4500241;31;34984;-61
2023/06/06 00:17:48;;;;;;;8.93;3.72;;;;;;;25.77;42.37;99698.00;4499704;31;33400;-62
2023/06/06 00:20:16;;;;;;;6.68;3.65;;;;;;;25.76;42.33;99699.91;4500993;31;34343;-61
2023/06/06 00:22:43;;;;;;;11.50;4.12;;;;;;;25.75;42.33;99695.50;4500901;31;33857;-62
2023/06/06 00:25:11;;;;;;;5.70;3.58;;;;;;;25.76;42.34;99704.56;4500861;31;34681;-62
2023/06/06 00:27:39;;;;;;;8.68;4.05;;;;;;;25.75;42.49;99697.41;4500820;31;33816;-61
2023/06/06 00:30:07;;;;;;;7.07;3.78;;;;;;;25.75;42.49;99690.03;4500791;31;34092;-61
2023/06/06 00:32:35;;;;;;;5.78;3.33;;;;;;;25.75;42.72;99689.19;4500696;31;33658;-61
2023/06/06 00:35:03;;;;;;;8.18;3.80;;;;;;;25.76;42.86;99694.44;4500704;31;35009;-61
2023/06/06 00:37:31;;;;;;;6.72;3.80;;;;;;;25.75;42.86;99681.81;4500733;31;33740;-61
2023/06/06 00:39:59;;;;;;;7.97;3.72;;;;;;;25.75;42.97;99684.56;4500753;31;33018;-61
2023/06/06 00:42:27;;;;;;;6.97;3.45;;;;;;;25.75;43.08;99686.47;4499303;31;32873;-62
2023/06/06 00:44:55;;;;;;;6.53;3.72;;;;;;;25.75;43.03;99681.00;4500693;31;34977;-62
2023/06/06 00:47:23;;;;;;;6.82;3.67;;;;;;;25.74;42.94;99677.44;4500717;31;33810;-62
2023/06/06 00:49:50;;;;;;;9.30;4.10;;;;;;;25.75;42.80;99667.34;4499270;31;33422;-61
2023/06/06 00:52:18;;;;;;;6.32;3.53;;;;;;;25.75;42.69;99670.91;4501002;31;34004;-61
2023/06/06 00:54:45;;;;;;;6.05;3.50;;;;;;;25.75;42.72;99675.53;4486717;31;35001;-61
2023/06/06 00:57:13;;;;;;;7.37;3.42;;;;;;;25.74;42.57;99671.97;4499132;31;34732;-61
2023/06/06 00:59:40;;;;;;;7.12;3.92;;;;;;;25.75;42.52;99670.06;4486391;31;33340;-61
2023/06/06 01:02:09;;;;;;;8.38;4.20;;;;;;;25.75;42.54;99664.59;4499381;31;34144;-61
2023/06/06 01:04:41;;;;;;;7.05;3.70;;;;;;;25.75;42.70;99665.44;4499177;31;34894;-61
2023/06/06 01:07:12;;;;;;;8.43;3.80;;;;;;;25.75;42.62;99672.81;4485688;31;34664;-61
2023/06/06 01:09:40;;;;;;;6.30;3.50;;;;;;;25.75;42.60;99676.38;4484694;32;33709;-61
2023/06/06 01:12:28;;;;;;;8.40;3.42;;;;;;;25.75;42.58;99672.81;4483505;32;34825;-61
2023/06/06 01:15:11;;;;;;;8.82;3.95;;;;;;;25.74;42.72;99673.84;4484742;32;34737;-61
2023/06/06 01:17:41;;;;;;;6.93;3.17;;;;;;;25.77;42.83;99678.88;4483435;32;34142;-61
2023/06/06 01:20:09;;;;;;;7.12;3.33;;;;;;;25.74;42.90;99665.66;4483465;32;33487;-61
2023/06/06 01:22:37;;;;;;;5.75;3.65;;;;;;;25.74;42.86;99663.78;4484389;32;34494;-61
2023/06/06 01:25:06;;;;;;;7.97;4.00;;;;;;;25.74;42.83;99661.06;4483743;32;34790;-61
2023/06/06 01:27:35;;;;;;;6.65;3.65;;;;;;;25.75;42.78;99673.63;4483417;32;34566;-61
2023/06/06 01:30:03;;;;;;;6.62;3.45;;;;;;;25.75;42.96;99668.16;4484508;32;33305;-62
2023/06/06 01:33:10;;;;;;;7.00;3.22;;;;;;;25.74;42.87;99661.06;4484643;32;34016;-61
2023/06/06 01:35:41;;;;;;;5.75;3.25;;;;;;;25.76;42.67;99655.34;4484529;32;33922;-62
2023/06/06 01:38:13;;;;;;;7.03;4.35;;;;;;;25.74;42.58;99652.00;4483141;32;34830;-61
2023/06/06 01:40:42;;;;;;;6.70;3.53;;;;;;;25.71;42.63;99661.53;4483473;32;32931;-61
2023/06/06 01:43:10;;;;;;;5.70;3.42;;;;;;;25.73;42.55;99659.38;4470480;32;33948;-63
2023/06/06 01:45:38;;;;;;;6.50;3.42;;;;;;;25.74;42.58;99661.06;4470237;32;34619;-62
2023/06/06 01:48:06;;;;;;;6.60;3.40;;;;;;;25.71;42.53;99653.31;4483135;32;34160;-61
2023/06/06 01:50:33;;;;;;;7.60;3.40;;;;;;;25.74;42.51;99657.47;4484436;32;34125;-61
2023/06/06 01:53:01;;;;;;;5.15;2.92;;;;;;;25.74;42.66;99662.94;4470226;32;34823;-62
2023/06/06 01:55:29;;;;;;;10.27;3.35;;;;;;;25.73;42.64;99659.38;4484324;32;34758;-61
2023/06/06 01:57:57;;;;;;;4.97;3.30;;;;;;;25.73;42.54;99661.28;4484703;32;34503;-61
2023/06/06 02:00:24;;;;;;;6.68;3.35;;;;;;;25.73;42.55;99651.16;4470472;32;33852;-62
2023/06/06 02:02:52;;;;;;;5.57;3.37;;;;;;;25.74;42.52;99650.13;4484271;32;33908;-63
2023/06/06 02:05:20;;;;;;;7.03;3.30;;;;;;;25.73;42.60;99644.88;4487405;31;34751;-63
2023/06/06 02:07:49;;;;;;;7.35;3.33;;;;;;;25.73;42.58;99653.91;4499931;31;33955;-63
2023/06/06 02:10:17;;;;;;;6.50;3.50;;;;;;;25.74;42.68;99657.47;4500351;31;33551;-63
2023/06/06 02:12:45;;;;;;;6.50;3.47;;;;;;;25.74;42.83;99660.19;4499969;31;33851;-63
2023/06/06 02:15:13;;;;;;;6.55;3.42;;;;;;;25.73;42.68;99666.75;4499859;31;33824;-62
2023/06/06 02:17:42;;;;;;;7.87;3.10;;;;;;;25.73;42.61;99662.09;4499007;31;33587;-63
2023/06/06 02:20:11;;;;;;;6.87;3.30;;;;;;;25.72;42.54;99663.19;4499966;31;33538;-63
2023/06/06 02:22:39;;;;;;;6.97;3.22;;;;;;;25.73;42.44;99664.00;4500064;31;35033;-63
2023/06/06 02:25:08;;;;;;;5.03;3.45;;;;;;;25.74;42.39;99676.59;4499901;31;33963;-63
2023/06/06 02:27:36;;;;;;;6.50;3.23;;;;;;;25.72;42.48;99665.91;4499854;31;33754;-62
2023/06/06 02:30:07;;;;;;;6.78;3.45;;;;;;;25.73;42.48;99666.75;4499952;31;33339;-63
2023/06/06 02:32:34;;;;;;;5.18;3.50;;;;;;;25.72;42.50;99674.09;4500126;31;34603;-63
2023/06/06 02:35:03;;;;;;;5.57;3.15;;;;;;;25.72;42.46;99682.31;4499680;31;33957;-63
2023/06/06 02:37:32;;;;;;;6.70;3.03;;;;;;;25.73;42.45;99691.34;4499686;31;35144;-62
2023/06/06 02:40:10;;;;;;;5.12;3.20;;;;;;;25.73;42.52;99691.34;4499399;31;33287;-62
2023/06/06 02:42:41;;;;;;;5.57;3.50;;;;;;;25.73;42.50;99702.25;4499728;31;33679;-63
2023/06/06 02:45:09;;;;;;;7.55;3.20;;;;;;;25.72;42.63;99695.97;4499987;31;33882;-63
2023/06/06 02:47:37;;;;;;;6.62;3.60;;;;;;;25.70;42.74;99689.94;4498626;31;33532;-62
2023/06/06 02:50:06;;;;;;;6.80;3.83;;;;;;;25.73;42.62;99696.78;4499529;31;33408;-63
2023/06/06 02:52:35;;;;;;;5.55;3.40;;;;;;;25.71;42.50;99699.78;4499601;31;33582;-62
2023/06/06 02:55:04;;;;;;;5.07;2.95;;;;;;;25.70;42.43;99695.41;4499357;31;34663;-63
2023/06/06 02:57:32;;;;;;;6.80;3.70;;;;;;;25.73;42.62;99691.34;4499744;31;34858;-63
2023/06/06 03:00:00;;;;;;;5.40;3.22;;;;;;;25.70;42.68;99688.03;4499477;31;33319;-62
2023/06/06 03:02:28;;;;;;;7.00;2.85;;;;;;;25.70;42.71;99690.75;4497878;31;32827;-63
2023/06/06 03:04:56;;;;;;;6.75;3.15;;;;;;;25.71;42.63;99686.13;4499151;31;34175;-63
2023/06/06 03:07:26;;;;;;;4.68;3.08;;;;;;;25.70;42.63;99685.28;4483846;32;33757;-63
2023/06/06 03:09:54;;;;;;;6.32;3.40;;;;;;;25.70;42.54;99692.66;4482180;32;33465;-61
2023/06/06 03:12:22;;;;;;;6.28;3.42;;;;;;;25.70;42.54;99700.88;4483789;32;33920;-61
2023/06/06 03:14:49;;;;;;;5.60;3.00;;;;;;;25.70;42.72;99689.94;4482244;32;33932;-61
2023/06/06 03:17:26;;;;;;;5.90;3.47;;;;;;;25.70;42.61;99703.59;4483739;32;34076;-61
2023/06/06 03:19:53;;;;;;;5.90;3.35;;;;;;;25.69;42.49;99705.50;4483686;32;33755;-61
2023/06/06 03:22:21;;;;;;;5.72;2.90;;;;;;;25.70;42.82;99718.09;4483487;32;34868;-61
2023/06/06 03:24:49;;;;;;;6.95;3.70;;;;;;;25.70;43.11;99726.28;4483589;32;34131;-62
2023/06/06 03:27:18;;;;;;;6.40;3.37;;;;;;;25.71;43.23;99724.38;4483565;32;34463;-63
2023/06/06 03:29:46;;;;;;;8.27;3.50;;;;;;;25.73;43.24;99718.66;4482811;32;34322;-62
2023/06/06 03:32:14;;;;;;;5.90;3.42;;;;;;;25.70;43.24;99709.06;4482061;32;33543;-63
2023/06/06 03:34:42;;;;;;;6.07;3.65;;;;;;;25.70;42.97;99714.53;4483492;32;33996;-62
2023/06/06 03:37:11;;;;;;;7.73;3.60;;;;;;;25.70;42.94;99707.16;4483241;32;34726;-61
2023/06/06 03:39:40;;;;;;;8.85;3.58;;;;;;;25.73;42.96;99710.47;4483103;32;33451;-65
2023/06/06 03:42:08;;;;;;;7.45;3.33;;;;;;;25.72;43.20;99712.37;4483253;32;34635;-66
2023/06/06 03:44:36;;;;;;;8.05;3.50;;;;;;;25.70;43.34;99701.69;4482851;32;34448;-69
2023/06/06 03:47:06;;;;;;;10.02;3.53;;;;;;;25.72;43.40;99698.69;4482922;32;34682;-69
2023/06/06 03:49:36;;;;;;;7.47;3.20;;;;;;;25.71;43.22;99697.06;4483193;32;33387;-69
2023/06/06 03:52:05;;;;;;;8.35;3.15;;;;;;;25.72;43.22;99700.62;4484558;32;34560;-68
2023/06/06 03:54:36;;;;;;;7.20;3.83;;;;;;;25.70;43.07;99690.75;4485388;32;33764;-69
2023/06/06 03:57:08;;;;;;;7.75;3.50;;;;;;;25.71;42.95;99683.38;4485055;32;35454;-69
2023/06/06 03:59:36;;;;;;;7.12;3.35;;;;;;;25.69;43.02;99675.44;4485623;32;34340;-68
2023/06/06 04:02:05;;;;;;;7.68;3.33;;;;;;;25.70;43.03;99666.16;4485185;32;33877;-68
2023/06/06 04:04:33;;;;;;;5.03;3.35;;;;;;;25.70;43.01;99663.44;4485079;32;34928;-69
2023/06/06 04:07:00;;;;;;;5.18;3.05;;;;;;;25.71;42.94;99669.72;4497938;31;33469;-68
2023/06/06 04:09:28;;;;;;;8.05;3.53;;;;;;;25.69;43.14;99675.44;4501015;31;33091;-68
2023/06/06 04:11:56;;;;;;;11.15;3.30;;;;;;;25.70;43.03;99681.72;4500633;31;33882;-65
2023/06/06 04:14:23;;;;;;;14.57;3.50;;;;;;;25.71;43.12;99683.38;4500916;31;33869;-67
2023/06/06 04:16:51;;;;;;;6.45;3.20;;;;;;;25.73;43.34;99680.41;4492297;31;34123;-65
2023/06/06 04:19:19;;;;;;;6.50;2.92;;;;;;;25.72;43.25;99676.84;4484987;32;33275;-65
2023/06/06 04:21:47;;;;;;;8.57;4.07;;;;;;;25.70;43.08;99676.28;4485251;32;33990;-66
2023/06/06 04:24:16;;;;;;;7.07;2.90;;;;;;;25.70;42.94;99679.81;4485207;32;34077;-65
2023/06/06 04:26:46;;;;;;;8.90;3.60;;;;;;;25.70;42.79;99681.72;4485187;32;34455;-66
2023/06/06 04:29:14;;;;;;;6.62;3.35;;;;;;;25.70;42.74;99682.56;4486972;31;33333;-64
2023/06/06 04:31:41;;;;;;;10.43;3.87;;;;;;;25.70;42.73;99684.47;4484787;32;33675;-68
2023/06/06 04:34:12;;;;;;;7.85;3.12;;;;;;;25.69;42.76;99683.66;4485194;32;34233;-69
2023/06/06 04:36:40;;;;;;;5.12;3.42;;;;;;;25.70;42.71;99682.56;4484975;32;33634;-68
2023/06/06 04:39:09;;;;;;;6.30;3.15;;;;;;;25.69;42.68;99680.91;4485150;32;34220;-68
2023/06/06 04:41:37;;;;;;;5.55;3.20;;;;;;;25.69;42.67;99680.91;4485060;32;34083;-69
2023/06/06 04:44:08;;;;;;;7.72;3.10;;;;;;;25.69;42.64;99682.78;4484968;32;34800;-68
2023/06/06 04:46:37;;;;;;;6.93;3.10;;;;;;;25.69;42.67;99680.06;4484754;32;34812;-68
2023/06/06 04:49:04;;;;;;;6.10;2.80;;;;;;;25.68;42.65;99679.22;4484774;32;33501;-67
2023/06/06 04:51:33;;;;;;;6.45;3.45;;;;;;;25.68;42.70;99683.88;4483810;32;34887;-68
2023/06/06 04:54:08;;;;;;;9.48;3.35;;;;;;;25.68;42.67;99681.97;4484055;32;33900;-65
2023/06/06 04:56:38;;;;;;;6.45;3.40;;;;;;;25.68;42.68;99683.88;4482779;32;33499;-65
2023/06/06 04:59:06;;;;;;;6.75;3.40;;;;;;;25.68;42.71;99678.41;4482732;32;33189;-67
2023/06/06 05:01:36;;;;;;;6.75;3.25;;;;;;;25.67;42.74;99677.56;4481776;32;34264;-65
2023/06/06 05:04:04;;;;;;;;;;;;;;;25.66;42.76;99689.59;4484120;32;33560;-65
2023/06/06 05:06:34;;;;;;;5.28;3.05;;;;;;;25.77;42.57;99685.16;4493681;31;34971;-66
2023/06/06 05:09:04;;;;;;;5.90;3.58;;;;;;;25.69;42.74;99685.53;4500171;31;34460;-66
2023/06/06 05:11:33;;;;;;;6.03;3.47;;;;;;;25.67;42.83;99693.97;4500451;31;33516;-66
2023/06/06 05:14:01;;;;;;;6.93;3.22;;;;;;;25.66;42.89;99691.50;4500642;31;33890;-65
2023/06/06 05:16:28;;;;;;;7.20;3.50;;;;;;;25.66;42.90;99696.97;4499275;31;33859;-65
2023/06/06 05:18:56;;;;;;;5.82;3.12;;;;;;;25.65;42.91;99689.84;4500463;31;33408;-68
2023/06/06 05:21:23;;;;;;;6.25;3.30;;;;;;;25.64;42.92;99693.63;4500328;31;33952;-66
2023/06/06 05:23:53;;;;;;;6.53;3.45;;;;;;;25.65;42.95;99693.41;4499799;31;33939;-64
2023/06/06 05:26:21;;;;;;;6.37;2.95;;;;;;;25.65;42.93;99700.78;4500207;31;33811;-65
2023/06/06 05:28:49;;;;;;;5.05;3.17;;;;;;;25.64;42.92;99705.38;4500370;31;32948;-65
2023/06/06 05:31:20;;;;;;;5.85;3.40;;;;;;;25.65;42.87;99701.59;4499311;31;34907;-65
2023/06/06 05:33:48;;;;;;;6.07;3.40;;;;;;;25.64;42.89;99702.66;4500559;31;33821;-68
2023/06/06 05:36:16;;;;;;;7.20;3.20;;;;;;;25.64;42.85;99699.91;4500286;31;34259;-68
2023/06/06 05:38:43;;;;;;;7.93;3.78;;;;;;;25.64;42.96;99699.09;4500303;31;33458;-69
2023/06/06 05:41:12;;;;;;;4.75;3.10;;;;;;;25.65;42.97;99708.97;4500595;31;34821;-69
2023/06/06 05:43:40;;;;;;;7.28;3.30;;;;;;;25.64;42.97;99705.38;4500282;31;35621;-68
2023/06/06 05:46:07;;;;;;;6.72;3.40;;;;;;;25.64;42.95;99708.09;4499119;31;33339;-69
2023/06/06 05:48:35;;;;;;;8.98;4.12;;;;;;;25.64;43.03;99705.38;4500085;31;34273;-66
2023/06/06 05:51:03;;;;;;;5.55;3.40;;;;;;;25.64;43.11;99705.38;4500305;31;33971;-69
2023/06/06 05:53:30;;;;;;;7.22;4.20;;;;;;;25.64;43.23;99705.38;4500244;31;33914;-70
2023/06/06 05:55:58;;;;;;;7.53;4.25;;;;;;;25.65;43.30;99703.50;4499931;31;33792;-67
2023/06/06 05:58:25;;;;;;;7.35;4.10;;;;;;;25.64;43.32;99701.81;4500248;31;33798;-69
2023/06/06 06:00:53;;;;;;;7.30;3.65;;;;;;;25.65;43.30;99714.44;4491860;31;34877;-68
2023/06/06 06:03:21;;;;;;;6.50;3.75;;;;;;;25.65;43.35;99711.69;4484277;32;34153;-67
2023/06/06 06:05:49;;;;;;;7.50;3.58;;;;;;;25.64;43.36;99708.09;4490546;31;34224;-69
2023/06/06 06:08:17;;;;;;;6.70;3.33;;;;;;;25.64;43.35;99713.56;4500275;31;34160;-67
2023/06/06 06:10:45;;;;;;;5.28;3.12;;;;;;;25.64;43.41;99716.31;4499871;31;33972;-66
2023/06/06 06:13:13;;;;;;;6.47;3.85;;;;;;;25.63;43.47;99714.66;4485867;31;34976;-66
2023/06/06 06:15:40;;;;;;;8.93;3.53;;;;;;;25.64;43.46;99718.22;4484324;32;33628;-65
2023/06/06 06:18:08;;;;;;;6.03;3.85;;;;;;;25.63;43.48;99716.56;4484111;32;33008;-69
2023/06/06 06:20:36;;;;;;;6.07;3.75;;;;;;;25.64;43.55;99715.47;4484070;32;34506;-69
2023/06/06 06:23:03;;;;;;;6.18;3.50;;;;;;;25.63;43.64;99713.81;4484228;32;33758;-66
2023/06/06 06:25:31;;;;;;;6.43;3.60;;;;;;;25.63;43.70;99722.84;4484017;32;33886;-66
2023/06/06 06:28:01;;;;;;;5.53;3.72;;;;;;;25.64;43.69;99724.50;4484216;32;34445;-68
2023/06/06 06:30:29;;;;;;;5.10;3.30;;;;;;;25.62;43.69;99729.41;4477321;32;211421;-65
2023/06/06 06:32:57;;;;;;;5.80;3.83;;;;;;;25.64;43.71;99729.16;4483860;32;34029;-65
2023/06/06 06:35:25;;;;;;;8.68;4.28;;;;;;;25.63;43.73;99725.59;4484168;32;33940;-66
2023/06/06 06:37:52;;;;;;;6.90;3.60;;;;;;;25.63;43.71;99720.13;4484305;32;33315;-68
2023/06/06 06:40:20;;;;;;;7.22;3.92;;;;;;;25.63;43.73;99731.06;4483884;32;33612;-66
2023/06/06 06:42:48;;;;;;;6.07;3.85;;;;;;;25.62;43.75;99734.87;4484095;32;34033;-66
2023/06/06 06:45:19;;;;;;;5.85;3.95;;;;;;;25.63;43.74;99739.25;4484094;32;34786;-65
2023/06/06 06:47:47;;;;;;;6.82;3.95;;;;;;;25.63;43.77;99739.25;4483759;32;33347;-64
2023/06/06 06:50:15;;;;;;;5.85;3.95;;;;;;;25.63;43.80;99741.16;4483838;32;33599;-66
2023/06/06 06:52:43;;;;;;;5.93;3.78;;;;;;;25.64;43.79;99748.28;4484061;32;34028;-65
2023/06/06 06:55:10;;;;;;;6.03;3.75;;;;;;;25.63;43.74;99749.34;4483671;32;34694;-68
2023/06/06 06:57:39;;;;;;;5.37;3.47;;;;;;;25.63;43.72;99754.81;4483785;32;33960;-68
2023/06/06 07:00:25;;;;;;;7.00;4.00;;;;;;;25.63;43.73;99752.91;4482781;32;33740;-69
2023/06/06 07:02:54;;;;;;;6.60;4.03;;;;;;;25.64;43.70;99759.19;4483678;32;34125;-69
2023/06/06 07:05:22;;;;;;;6.57;4.35;;;;;;;25.62;43.74;99748.53;4486891;31;34164;-67
2023/06/06 07:07:52;;;;;;;7.82;4.45;;;;;;;25.63;43.77;99747.44;4498011;31;34001;-67
2023/06/06 07:10:22;;;;;;;5.25;3.83;;;;;;;25.62;43.80;99743.06;4499488;31;33801;-66
2023/06/06 07:12:50;;;;;;;5.60;4.17;;;;;;;25.61;43.85;99752.34;4499030;31;33921;-67
2023/06/06 07:15:19;;;;;;;6.62;4.22;;;;;;;25.62;43.85;99759.44;4499604;31;34430;-67
2023/06/06 07:17:49;;;;;;;7.10;4.70;;;;;;;25.61;43.89;99756.97;4499230;31;33811;-69
2023/06/06 07:20:21;;;;;;;8.68;4.43;;;;;;;25.62;43.88;99754.00;4497867;31;33765;-69
2023/06/06 07:22:55;;;;;;;6.85;4.12;;;;;;;25.61;43.87;99755.06;4485370;31;34742;-67
2023/06/06 07:25:23;;;;;;;5.62;3.92;;;;;;;25.62;43.85;99754.00;4500305;31;34200;-68
2023/06/06 07:27:52;;;;;;;7.82;4.72;;;;;;;25.62;43.88;99755.91;4501214;31;34068;-65
2023/06/06 07:30:19;;;;;;;9.32;4.68;;;;;;;25.61;43.87;99746.88;4501090;31;34607;-66
2023/06/06 07:32:47;;;;;;;7.15;4.80;;;;;;;25.61;43.92;99748.78;4501422;31;34642;-65
2023/06/06 07:35:16;;;;;;;7.37;5.37;;;;;;;25.60;43.95;99753.41;4501057;31;34107;-68
2023/06/06 07:37:44;;;;;;;10.07;5.47;;;;;;;25.61;43.95;99744.13;4501173;31;33414;-65
2023/06/06 07:40:12;;;;;;;9.20;6.05;;;;;;;25.61;43.99;99743.31;4501060;31;33938;-65
2023/06/06 07:42:40;;;;;;;8.52;5.90;;;;;;;25.62;44.02;99744.97;4501156;31;34154;-65
2023/06/06 07:45:08;;;;;;;9.38;7.15;;;;;;;25.61;44.07;99748.78;4501179;31;33702;-68
2023/06/06 07:47:36;;;;;;;10.95;6.65;;;;;;;25.61;44.17;99748.78;4490728;31;33571;-69
2023/06/06 07:50:04;;;;;;;9.40;7.45;;;;;;;25.62;44.21;99750.44;4484095;32;33648;-69
2023/06/06 07:52:32;;;;;;;8.43;6.53;;;;;;;25.60;44.26;99750.69;4485312;32;33980;-68
2023/06/06 07:55:01;;;;;;;8.35;5.87;;;;;;;25.61;44.29;99746.03;4485004;31;34670;-67
2023/06/06 07:57:30;;;;;;;9.05;6.22;;;;;;;25.61;44.32;99746.88;4497741;31;33467;-69
2023/06/06 07:59:58;;;;;;;10.18;7.30;;;;;;;25.62;44.25;99744.97;4500979;31;34143;-68
2023/06/06 08:02:26;;;;;;;9.68;6.45;;;;;;;25.62;44.27;99737.59;4500925;31;34566;-68
2023/06/06 08:04:54;;;;;;;9.32;6.53;;;;;;;25.61;44.28;99740.59;4500754;31;33961;-70
2023/06/06 08:07:22;;;;;;;9.98;8.20;;;;;;;25.61;44.35;99741.41;4485214;32;34052;-68
2023/06/06 08:09:52;;;;;;;10.30;7.80;;;;;;;25.61;44.57;99732.38;4485162;32;34611;-68
2023/06/06 08:12:20;;;;;;;10.13;8.38;;;;;;;25.60;44.62;99730.69;4485132;32;34045;-69
2023/06/06 08:14:47;;;;;;;10.32;8.07;;;;;;;25.60;44.65;99731.56;4485440;32;33985;-69
2023/06/06 08:17:15;;;;;;;13.23;8.27;;;;;;;25.60;44.66;99733.44;4485009;32;33468;-68
2023/06/06 08:19:43;;;;;;;9.38;7.97;;;;;;;25.60;44.72;99734.28;4485102;32;34862;-69
2023/06/06 08:22:10;;;;;;;10.73;8.90;;;;;;;25.60;44.80;99730.69;4485090;32;33904;-69
2023/06/06 08:24:39;;;;;;;14.25;10.05;;;;;;;25.60;44.85;99731.56;4483556;32;34216;-69
2023/06/06 08:27:07;;;;;;;13.27;9.53;;;;;;;25.60;44.99;99725.22;4483877;32;33736;-68
2023/06/06 08:29:35;;;;;;;10.95;9.60;;;;;;;25.61;45.15;99727.75;4484821;32;33860;-68
2023/06/06 08:32:04;;;;;;;11.55;10.02;;;;;;;25.61;45.16;99724.19;4484947;32;34218;-69
2023/06/06 08:34:31;;;;;;;13.45;9.65;;;;;;;25.60;45.22;99730.69;4485074;32;33993;-69
2023/06/06 08:36:59;;;;;;;11.90;9.90;;;;;;;25.62;45.11;99734.03;4484410;32;33209;-68
2023/06/06 08:39:27;;;;;;;13.07;9.85;;;;;;;25.61;45.21;99727.75;4485064;32;34567;-69
2023/06/06 08:41:55;;;;;;;12.37;10.25;;;;;;;25.61;45.24;99732.38;4484952;32;34895;-67
2023/06/06 08:44:23;;;;;;;13.02;10.45;;;;;;;25.61;45.23;99735.13;4483480;32;34447;-63
2023/06/06 08:46:52;;;;;;;13.05;10.38;;;;;;;25.61;45.16;99722.28;4484937;32;34256;-65
2023/06/06 08:49:20;;;;;;;13.50;10.93;;;;;;;25.61;45.25;99727.75;4484789;32;33947;-64
2023/06/06 08:51:48;;;;;;;12.07;9.68;;;;;;;25.62;45.29;99718.47;4484663;32;33858;-63
2023/06/06 08:54:17;;;;;;;11.57;9.80;;;;;;;25.62;45.50;99718.47;4484903;32;34043;-63
2023/06/06 08:56:45;;;;;;;12.35;10.32;;;;;;;25.63;45.61;99719.28;4484844;32;33651;-64
2023/06/06 08:59:14;;;;;;;11.48;10.23;;;;;;;25.64;45.66;99727.25;4484678;32;33920;-64
2023/06/06 09:01:41;;;;;;;11.15;9.65;;;;;;;25.64;45.62;99715.47;4484803;32;33724;-63
2023/06/06 09:04:09;;;;;;;10.45;9.35;;;;;;;25.66;45.58;99722.38;4484841;32;33830;-63
2023/06/06 09:06:38;;;;;;;12.48;10.10;;;;;;;25.65;45.63;99726.19;4481966;31;34410;-63
2023/06/06 09:09:07;;;;;;;11.23;9.75;;;;;;;25.66;45.59;99727.00;4499343;31;33462;-64
2023/06/06 09:11:36;;;;;;;11.95;9.77;;;;;;;25.67;45.52;99728.66;4500598;31;34760;-63
2023/06/06 09:14:06;;;;;;;18.05;10.75;;;;;;;25.67;45.44;99720.47;4499315;31;33834;-64
2023/06/06 09:16:34;;;;;;;11.95;9.65;;;;;;;25.66;45.32;99724.28;4500619;31;34187;-64
2023/06/06 09:19:02;;;;;;;10.55;9.25;;;;;;;25.67;45.20;99723.19;4499350;31;34667;-64
2023/06/06 09:21:32;;;;;;;14.82;11.75;;;;;;;25.66;45.29;99716.91;4500427;31;33855;-64
2023/06/06 09:24:00;;;;;;;14.05;11.35;;;;;;;25.66;45.28;99721.56;4500515;31;34043;-64
2023/06/06 09:26:30;;;;;;;13.13;11.53;;;;;;;25.67;45.26;99715.84;4500298;31;33676;-64
2023/06/06 09:29:04;;;;;;;15.43;13.57;;;;;;;25.68;45.20;99716.66;4499217;31;33814;-64
2023/06/06 09:31:38;;;;;;;15.32;12.85;;;;;;;25.67;45.18;99707.62;4499184;31;34010;-64
2023/06/06 09:34:07;;;;;;;16.27;13.18;;;;;;;25.69;45.14;99712.84;4500257;31;33777;-64
2023/06/06 09:36:37;;;;;;;15.38;12.88;;;;;;;25.68;45.14;99714.75;4496582;31;33620;-66
2023/06/06 09:39:14;;;;;;;14.85;12.23;;;;;;;25.68;45.15;99711.19;4468713;32;34534;-67
2023/06/06 09:41:45;;;;;;;16.00;13.05;;;;;;;25.69;45.10;99710.97;4467597;32;34017;-66
2023/06/06 09:44:17;;;;;;;13.77;12.20;;;;;;;25.68;45.14;99713.94;4467376;32;34678;-65
2023/06/06 09:46:45;;;;;;;13.60;11.32;;;;;;;25.68;45.15;99709.28;4467368;32;33347;-66
2023/06/06 09:49:14;;;;;;;13.50;11.27;;;;;;;25.69;45.09;99710.13;4467683;32;33896;-67
2023/06/06 09:51:42;;;;;;;12.93;10.90;;;;;;;25.68;45.15;99706.56;4469133;32;34019;-67
2023/06/06 09:54:10;;;;;;;11.45;10.25;;;;;;;25.67;45.15;99699.44;4467495;32;33564;-66
2023/06/06 09:56:41;;;;;;;10.85;9.68;;;;;;;25.68;45.07;99697.53;4468795;32;33406;-66
2023/06/06 09:59:09;;;;;;;11.43;10.23;;;;;;;25.67;45.05;99699.44;4468961;32;34526;-66
2023/06/06 10:01:37;;;;;;;11.25;9.73;;;;;;;25.68;45.05;99706.56;4470263;32;34661;-65
2023/06/06 10:04:05;;;;;;;11.52;10.27;;;;;;;25.68;44.98;99705.72;4483125;32;34646;-67
2023/06/06 10:06:33;;;;;;;11.25;10.05;;;;;;;25.66;44.97;99695.06;4470137;32;33856;-67
2023/06/06 10:09:02;;;;;;;13.38;10.82;;;;;;;25.66;44.90;99695.06;4470339;32;34526;-65
2023/06/06 10:11:30;;;;;;;11.57;10.10;;;;;;;25.67;44.87;99698.63;4484289;32;34621;-66
2023/06/06 10:13:58;;;;;;;12.65;10.38;;;;;;;25.67;44.85;99702.16;4482823;32;33467;-67
2023/06/06 10:16:29;;;;;;;12.52;9.95;;;;;;;25.67;44.76;99690.41;4483036;32;34341;-66
2023/06/06 10:18:57;;;;;;;12.23;10.50;;;;;;;25.67;44.76;99693.16;4484240;32;33725;-66
2023/06/06 10:21:25;;;;;;;11.63;10.00;;;;;;;25.67;44.79;99695.87;4484133;32;34674;-66
2023/06/06 10:23:53;;;;;;;11.70;10.18;;;;;;;25.67;44.85;99693.97;4470045;32;34332;-66
2023/06/06 10:26:22;;;;;;;11.23;9.60;;;;;;;25.67;44.86;99696.72;4480315;32;33513;-66
2023/06/06 10:28:58;;;;;;;13.77;10.73;;;;;;;25.66;44.89;99697.78;4482718;32;34437;-65
2023/06/06 10:31:30;;;;;;;11.40;10.02;;;;;;;25.67;44.86;99698.63;4484213;32;33793;-66
2023/06/06 10:34:04;;;;;;;11.93;10.43;;;;;;;25.68;44.94;99698.34;4482637;32;33882;-66
2023/06/06 10:36:40;;;;;;;12.55;10.18;;;;;;;25.68;44.88;99694.78;4480957;32;33418;-65
2023/06/06 10:39:44;;;;;;;12.60;10.45;;;;;;;25.68;44.83;99692.06;4466750;32;33605;-66
2023/06/06 10:42:12;;;;;;;11.35;10.05;;;;;;;25.68;44.88;99698.34;4466785;32;33908;-66
2023/06/06 10:44:45;;;;;;;12.52;9.60;;;;;;;25.67;44.92;99696.72;4468160;32;34518;-64
2023/06/06 10:47:35;;;;;;;11.85;10.30;;;;;;;25.67;44.95;99695.87;4468088;32;34185;-66
2023/06/06 10:50:10;;;;;;;11.45;9.70;;;;;;;25.68;44.95;99694.78;4467026;32;34740;-67
2023/06/06 10:53:05;;;;;;;11.45;10.13;;;;;;;25.67;44.97;99688.50;4470478;32;34759;-65
2023/06/06 10:55:32;;;;;;;12.37;10.60;;;;;;;25.66;44.96;99686.03;4482396;32;34147;-66
2023/06/06 10:58:16;;;;;;;11.52;9.52;;;;;;;25.67;45.03;99688.50;4483789;32;33643;-66
2023/06/06 11:00:44;;;;;;;11.40;10.20;;;;;;;25.68;45.03;99679.22;4484970;32;34106;-66
2023/06/06 11:03:14;;;;;;;11.30;9.68;;;;;;;25.66;45.10;99680.56;4478353;32;34309;-65
2023/06/06 11:06:12;;;;;;;10.63;9.52;;;;;;;25.67;45.14;99680.31;4472384;32;33518;-65
2023/06/06 11:08:44;;;;;;;10.23;8.88;;;;;;;25.69;45.13;99680.06;4486714;31;33518;-66
2023/06/06 11:11:22;;;;;;;11.32;9.93;;;;;;;25.67;45.19;99688.50;4488474;31;34204;-66
2023/06/06 11:14:06;;;;;;;10.57;9.38;;;;;;;25.67;45.29;99680.31;4484208;32;34825;-65
2023/06/06 11:16:40;;;;;;;10.85;9.75;;;;;;;25.66;45.32;99684.12;4484361;32;33888;-66
2023/06/06 11:19:15;;;;;;;11.02;9.23;;;;;;;25.68;45.36;99692.06;4485393;32;33809;-65
2023/06/06 11:21:47;;;;;;;10.10;8.85;;;;;;;25.66;45.53;99686.03;4484834;31;33829;-65
2023/06/06 11:24:21;;;;;;;11.07;9.70;;;;;;;25.68;45.53;99694.78;4500089;31;34722;-66
2023/06/06 11:26:50;;;;;;;11.75;9.48;;;;;;;25.67;45.56;99693.97;4500140;31;33450;-64
2023/06/06 11:29:18;;;;;;;12.23;9.68;;;;;;;25.67;45.59;99691.25;4496908;31;34370;-65
2023/06/06 11:31:46;;;;;;;11.10;8.98;;;;;;;25.68;45.59;99692.88;4493595;31;33462;-65
2023/06/06 11:34:13;;;;;;;9.88;8.88;;;;;;;25.68;45.60;99694.78;4499400;31;33508;-65
2023/06/06 11:36:43;;;;;;;10.77;9.25;;;;;;;25.67;45.59;99696.72;4490256;31;33811;-65
2023/06/06 11:39:11;;;;;;;11.30;8.82;;;;;;;25.67;45.44;99701.34;4484006;32;34230;-67